首页
METAR-TAF:

METAR-TAF

机场 :

德梅因, 艾奥瓦州, 美国

纬度: 41-32-16N, 经度: 093-39-58W, 海拔: 291米

当前天气观测

该预报发布于44分钟前的23:54 UTC
风速6节,风向西南
温度 24°C
湿度 61%
气压 1012 hPa
能見度: 16.1公里
少量云层高于6000英尺
多云层高于9000英尺, 积雨云.
多云层高于20000英尺

METAR: KDSM 252354Z 22006KT 10SM FEW060 BKN090CB BKN200 24/16 A2988 RMK AO2 LTG DSNT S SLP110 CBMAM W MOV E 60000 T02440161 10283 20244 58004

时间: 19:38 (00:38 UTC)

预报

该预报发布于1小时和15分钟前的23:23 UTC
预报有效从26日的 00点(UTC)到 26日的 24点(UTC)
风速7节,风向西南
能見度: 10公里
散云层高于9000英尺
多云层高于11000英尺
阴天层高于20000英尺
从 26日的 0200点(UTC)
风速5节,风向西
能見度: 10公里
散云层高于12000英尺
多云层高于20000英尺
从 26日的 0800点(UTC)
风速3节,风向多变
能見度: 10公里
散云层高于15000英尺
从 26日的 1500点(UTC)
风速6节,风向东南
能見度: 10公里
多云层高于12000英尺
从 26日的 1900点(UTC)
风速7节,风向
能見度: 10公里
散云层高于6000英尺
多云层高于20000英尺

TAF: KDSM 252323Z 2600/2624 23007KT P6SM SCT090 BKN110 OVC200 FM260200 28005KT P6SM SCT120 BKN200 FM260800 VRB03KT P6SM SCT150 FM261500 14006KT P6SM BKN120 FM261900 17007KT P6SM SCT060 BKN200

超过4000个机场的气象观测和天气预报(METAR&TAF报告)。

可查询的气象台以黄色和红色小点在地图上表示。

将鼠标移到小点上方,可查看气象台名称。

然后点击查看天气观测和预报。

如需切换地图:点击带黑十字的绿色按钮放大地图;点击带横线的绿色按钮缩小地图;或者点击绿色箭头查看邻近地区的地图。


METAR-TAF: